This is the latest recevied weather packets stored in our database for station/object CA3DPI. If no packets are shown the sender has not sent any weather packets the latest 10 day(s).
| Time | Temp. | Humidity | Pressure | Rain* | Wind** | Luminosity | Snow |
|---|---|---|---|---|---|---|---|
| 1777670212 | 24.44° C | 41% | 1023.7 hPa | - | - | - | - |
| 1777669611 | 25° C | 41% | 1023.8 hPa | - | - | - | - |
| 1777669011 | 25.56° C | 41% | 1024 hPa | - | - | - | - |
| 1777668411 | 26.67° C | 40% | 1024 hPa | - | - | - | - |
| 1777667816 | 27.22° C | 39% | 1024 hPa | - | - | - | - |
| 1777667216 | 27.22° C | 38% | 1023.9 hPa | - | - | - | - |
| 1777666616 | 27.78° C | 39% | 1024 hPa | - | - | - | - |
| 1777666016 | 27.22° C | 39% | 1023.9 hPa | - | - | - | - |
| 1777665416 | 27.78° C | 38% | 1023.7 hPa | - | - | - | - |
| 1777664815 | 27.22° C | 39% | 1023.8 hPa | - | - | - | - |
| 1777664215 | 26.67° C | 40% | 1023.7 hPa | - | - | - | - |
| 1777663615 | 25° C | 41% | 1023.8 hPa | - | - | - | - |
| 1777663015 | 25.56° C | 40% | 1023.8 hPa | - | - | - | - |
| 1777662415 | 24.44° C | 43% | 1023.8 hPa | - | - | - | - |
| 1777661815 | 25.56° C | 40% | 1023.8 hPa | - | - | - | - |
| 1777661215 | 25.56° C | 41% | 1023.6 hPa | - | - | - | - |
| 1777660614 | 23.89° C | 43% | 1023.5 hPa | - | - | - | - |
| 1777660014 | 21.67° C | 45% | 1023.7 hPa | - | - | - | - |
| 1777659414 | 21.11° C | 46% | 1023.4 hPa | - | - | - | - |
| 1777658814 | 20.56° C | 46% | 1023.4 hPa | - | - | - | - |
| 1777658214 | 20° C | 48% | 1023.4 hPa | - | - | - | - |
| 1777657613 | 20° C | 46% | 1023.4 hPa | - | - | - | - |
| 1777657013 | 19.44° C | 46% | 1023.4 hPa | - | - | - | - |
| 1777656413 | 17.78° C | 48% | 1023.6 hPa | - | - | - | - |
| 1777655813 | 18.33° C | 48% | 1023.6 hPa | - | - | - | - |
* Rain since midnight (hover to see other rain measurements)
** Current wind speed in m/s (hover to see current wind gust speed)